• Join FlightAware (Why Join?)
  • Login
  • US Flag 
05:10AM EDT


 

Airport Tracker/Info


-or-


 

Live Flight TrackerFlight Track Log ✈ CPT8773 ✈ 22-Apr-2014 ✈ KCPR - KCOD

Flight Track Log - Related Links

Times and Time Zones

All times are in EDT time to prevent confusion due to time zone crossing. See the CPT8773 flight status page for this flight to view local times or setup timezone preferences in your user account.

Time Position Orientation Groundspeed Altitude Reporting Facility
EDT Latitude Longitude Course Direction KTS MPH feet Rate Location/Type
08:59AM 42.9694 -106.5122 308° West 136 157 8,300  Level Salt Lake Center
09:00AM 43.0014 -106.5283 340° North 136 157 9,100 720 Climbing Salt Lake Center
09:01AM 43.0322 -106.5464 337° Northwest 132 152 9,800 780 Climbing Salt Lake Center
09:02AM 43.0694 -106.5653 340° North 132 152 10,700 780 Climbing Salt Lake Center
09:03AM 43.0950 -106.2871 308° West  Level FlightAware Approximate
09:03AM 43.0983 -106.5822 337° Northwest 126 145 11,400  Level Salt Lake Center
09:04AM 43.1203 -106.3313 308° West  Level FlightAware Approximate
09:04AM 43.1297 -106.6006 337° Northwest 125 144 12,100  Level Salt Lake Center
09:05AM 43.1758 -106.6231 340° North 150 173 12,000 -60 Descending Salt Lake Center
09:06AM 43.2175 -106.6417 342° North 159 183 12,000  Level Salt Lake Center
09:07AM 43.2581 -106.6622 340° North 160 184 12,100  Climbing Salt Lake Center
09:08AM 43.3031 -106.6867 338° Northwest 158 182 12,100  Level Salt Lake Center
09:09AM 43.3278 -106.7269 310° West 149 171 12,100  Level Salt Lake Center
09:10AM 43.3472 -106.7694 302° West 140 161 12,100  Level Salt Lake Center
09:11AM 43.3733 -106.8169 307° West 140 161 12,100  Level Salt Lake Center
09:12AM 43.3947 -106.8589 305° West 140 161 12,100  Level Salt Lake Center
09:13AM 43.4194 -106.9061 306° West 139 160 12,100  Level Salt Lake Center
09:14AM 43.4408 -106.9475 305° West 139 160 12,100 -60 Level Salt Lake Center
09:15AM 43.4625 -106.9894 305° West 135 155 12,000 -60 Descending Salt Lake Center
09:16AM 43.4850 -107.0322 306° West 136 157 12,000  Level Salt Lake Center
09:17AM 43.5094 -107.0750 308° West 137 158 12,000  Level Salt Lake Center
09:18AM 43.5294 -107.1192 302° West 138 159 12,000  Level Salt Lake Center
09:19AM 43.5525 -107.1597 308° West 137 158 12,000  Level Salt Lake Center
09:20AM 43.5747 -107.2000 307° West 137 158 12,000  Level Salt Lake Center
09:21AM 43.5953 -107.2447 302° West 137 158 12,000  Level Salt Lake Center
09:22AM 43.6189 -107.2894 306° West 137 158 12,000  Level Salt Lake Center
09:23AM 43.6433 -107.3331 308° West 138 159 12,000  Level Salt Lake Center
09:24AM 43.6717 -107.3875 306° West 141 162 12,000  Level Salt Lake Center
09:25AM 43.6931 -107.4314 304° West 141 162 12,000  Level Salt Lake Center
09:26AM 43.7150 -107.4753 305° West 141 162 12,000  Level Salt Lake Center
09:27AM 43.7389 -107.5206 306° West 141 162 12,000  Level Salt Lake Center
09:28AM 43.7633 -107.5658 307° West 141 162 12,000  Level Salt Lake Center
09:29AM 43.7858 -107.6117 304° West 142 163 12,000  Level Salt Lake Center
09:30AM 43.8111 -107.6578 307° West 144 166 12,000  Level Salt Lake Center
09:31AM 43.8353 -107.7053 305° West 145 167 12,000  Level Salt Lake Center
09:32AM 43.8594 -107.7536 305° West 148 170 12,000  Level Salt Lake Center
09:33AM 43.8833 -107.7997 306° West 148 170 12,000  Level Salt Lake Center
09:34AM 43.9081 -107.8464 306° West 148 170 12,000  Level Salt Lake Center
09:35AM 43.9364 -107.9047 304° West 148 170 12,000  Level Salt Lake Center
09:36AM 43.9617 -107.9522 306° West 149 171 12,000 -180 Level Salt Lake Center
09:37AM 43.9878 -107.9994 308° West 149 171 11,700 -480 Descending Salt Lake Center
09:38AM 44.0156 -108.0478 309° West 154 177 11,100 -600 Descending Salt Lake Center
09:39AM 44.0425 -108.0997 306° West 159 183 10,500 -540 Descending Salt Lake Center
09:40AM 44.0681 -108.1533 304° West 160 184 10,000 -300 Descending Salt Lake Center
09:41AM 44.0947 -108.2042 306° West 160 184 10,000  Level Salt Lake Center
09:42AM 44.1222 -108.2553 307° West 160 184 10,000  Level Salt Lake Center
09:43AM 44.1481 -108.3072 305° West 160 184 10,000  Level Salt Lake Center
09:44AM 44.1761 -108.3608 306° West 164 189 10,000  Level Salt Lake Center
09:45AM 44.2031 -108.4114 307° West 164 189 10,000  Level Salt Lake Center
09:47AM 44.2356 -108.4731 306° West 164 189 10,000  Level Salt Lake Center
09:48AM 44.2625 -108.5250 306° West 164 189 10,000  Level Salt Lake Center
09:49AM 44.2906 -108.5781 306° West 165 190 10,000  Level Salt Lake Center
09:50AM 44.3181 -108.6325 305° West 166 191 10,000  Level Salt Lake Center
09:51AM 44.3458 -108.6864 306° West 167 192 10,000  Level Salt Lake Center